Latest Weather Observations for Nhill Aerodrome

IDV60801

Issued at 12:02 pm EST Thursday 3 September 2015 (issued every 30 minutes, with the page automatically refreshed every 10 minutes)

About weather observations | Map of weather stations | Latest weather observations for VIC | Other Formats
Station Details ID: 078015 Name: NHILL AERODROME Lat: -36.31 Lon: 141.65 Height: 138.9 m
Data from the previous 72 hours. | See also: Recent months at Nhill Aerodrome
Date/Time
EST
Temp
°C
App
Temp
°C
Dew
Point
Rel
Hum
%
Delta-T
°C
Wind Press
QNH
hPa
Press
MSL
hPa
Rain
since 9 am
mm
Dir
 
Spd
km/h
Gust
km/h
Spd
kts
Gust
kts
03/12:00pm 14.8 11.3 11.0 78 2.0 S 20 30 11 16 1017.6 1017.6 0.0
03/11:30am 14.6 10.8 11.2 80 1.8 S 22 33 12 18 1017.3 1017.3 0.0
03/11:00am 13.3 9.8 12.2 93 0.6 S 22 32 12 17 1017.3 1017.3 0.0
03/10:30am 13.3 10.1 13.0 98 0.2 S 22 30 12 16 1016.9 1016.9 0.0
03/10:00am 12.2 8.7 12.2 100 0.0 SSW 22 28 12 15 1016.7 1016.7 0.0
03/09:30am 11.4 7.7 11.4 100 0.0 S 22 28 12 15 1016.4 1016.4 0.0
03/09:00am 10.4 6.0 10.4 100 0.0 SSW 24 33 13 18 1015.8 1015.8 11.2
03/08:30am 9.9 6.7 9.9 100 0.0 SSW 17 24 9 13 1014.8 1014.8 11.2
03/08:00am 9.5 5.8 9.5 100 0.0 SSW 19 26 10 14 1014.0 1014.0 11.2
03/07:30am 9.2 5.4 9.2 100 0.0 SSW 19 26 10 14 1013.0 1013.1 11.2
03/07:00am 9.0 4.6 9.0 100 0.0 SSW 22 32 12 17 1012.4 1012.5 11.2
03/06:30am 8.8 4.4 8.8 100 0.0 SSW 22 28 12 15 1011.7 1011.8 11.2
03/06:00am 8.7 4.2 8.7 100 0.0 SW 22 28 12 15 1010.9 1010.9 11.2
03/05:30am 8.6 4.7 8.6 100 0.0 SSW 19 26 10 14 1010.2 1010.2 11.2
03/05:00am 8.3 4.7 8.3 100 0.0 SW 17 24 9 13 1009.6 1009.6 11.2
03/04:30am 8.2 5.3 8.2 100 0.0 SW 13 19 7 10 1009.2 1009.2 11.2
03/04:00am 7.7 4.7 7.7 100 0.0 SSW 13 17 7 9 1008.6 1008.6 11.2
03/03:30am 7.8 4.4 7.8 100 0.0 SSW 15 20 8 11 1008.3 1008.3 11.2
03/03:00am 8.3 3.7 8.3 100 0.0 SSW 22 30 12 16 1008.3 1008.3 11.2
03/02:30am 7.6 4.2 7.6 100 0.0 SSW 15 20 8 11 1008.4 1008.4 11.2
03/02:00am 7.2 2.9 7.2 100 0.0 SSW 19 24 10 13 1008.3 1008.3 11.2
03/01:30am 6.9 3.7 6.9 100 0.0 SSW 13 19 7 10 1008.0 1008.0 11.2
03/01:00am 7.6 5.0 7.6 100 0.0 SSW 11 15 6 8 1007.8 1007.8 11.2
03/12:30am 7.7 5.5 7.7 100 0.0 SSW 9 11 5 6 1007.7 1007.7 11.2
03/12:00am 6.9 3.3 6.9 100 0.0 SSW 15 20 8 11 1007.5 1007.5 11.2
 
Date/Time
EST
Temp
°C
App
Temp
°C
Dew
Point
Rel
Hum
%
Delta-T
°C
Wind Press
QNH
hPa
Press
MSL
hPa
Rain
since 9 am
mm
Dir
 
Spd
km/h
Gust
km/h
Spd
kts
Gust
kts
02/11:30pm 5.7 2.3 5.7 100 0.0 S 13 15 7 8 1007.4 1007.4 11.2
02/11:00pm 5.9 2.1 5.9 100 0.0 S 15 19 8 10 1007.3 1007.3 11.2
02/10:30pm 5.8 2.4 5.8 100 0.0 S 13 15 7 8 1006.9 1006.9 11.2
02/10:00pm 5.0 1.8 5.0 100 0.0 S 11 13 6 7 1006.7 1006.7 11.2
02/09:30pm 5.7 2.6 5.7 100 0.0 S 11 13 6 7 1006.3 1006.3 11.2
02/09:00pm 6.7 4.2 6.7 100 0.0 S 9 9 5 5 1006.2 1006.2 11.2
02/08:30pm 6.7 4.2 6.7 100 0.0 S 9 9 5 5 1006.0 1006.0 11.2
02/08:00pm 7.4 5.7 7.4 100 0.0 E 6 7 3 4 1006.0 1006.0 11.2
02/07:30pm 8.7 8.4 8.7 100 0.0 CALM 0 0 0 0 1005.7 1005.7 11.2
02/07:00pm 9.0 7.5 9.0 100 0.0 E 7 9 4 5 1005.1 1005.1 11.2
02/06:30pm 10.0 8.3 10.0 100 0.0 E 9 11 5 6 1005.1 1005.1 11.2
02/06:00pm 10.1 7.7 10.1 100 0.0 E 13 17 7 9 1004.8 1004.8 11.2
02/05:30pm 10.3 7.2 10.3 100 0.0 E 17 20 9 11 1004.3 1004.3 11.2
02/05:00pm 10.6 7.2 10.6 100 0.0 E 19 24 10 13 1004.3 1004.3 11.2
02/04:30pm 10.3 7.6 10.3 100 0.0 E 15 19 8 10 1004.4 1004.4 11.2
02/04:00pm 9.9 7.5 9.9 100 0.0 ENE 13 17 7 9 1004.8 1004.8 11.2
02/03:30pm 9.9 7.5 9.9 100 0.0 ENE 13 17 7 9 1004.6 1004.6 11.2
02/03:00pm 10.1 6.9 10.1 100 0.0 E 17 22 9 12 1004.3 1004.3 11.2
02/02:30pm 9.7 6.1 9.7 100 0.0 E 19 24 10 13 1003.7 1003.7 11.2
02/02:00pm 9.5 7.3 9.5 100 0.0 NE 11 17 6 9 1004.8 1004.8 10.8
02/01:30pm 9.5 7.7 9.5 100 0.0 N 9 15 5 8 1006.0 1006.0 10.0
02/01:00pm 9.7 7.2 9.7 100 0.0 NNW 13 20 7 11 1006.9 1006.9 9.6
02/12:30pm 9.7 6.8 9.7 100 0.0 NNW 15 20 8 11 1007.6 1007.6 7.6
02/12:00pm 9.7 6.4 9.7 100 0.0 N 17 24 9 13 1007.8 1007.8 5.4
02/11:30am 9.5 6.9 9.5 100 0.0 N 13 19 7 10 1008.3 1008.3 4.4
02/11:00am 9.4 6.8 9.4 100 0.0 NNE 13 20 7 11 1008.2 1008.2 2.6
02/10:30am 9.4 6.1 9.4 100 0.0 NE 17 28 9 15 1007.7 1007.7 0.2
02/10:00am 9.5 5.6 9.5 100 0.0 NE 20 30 11 16 1007.3 1007.3 0.2
02/09:30am 9.4 6.4 9.4 100 0.0 NE 15 24 8 13 1008.1 1008.1 0.2
02/09:00am 8.7 6.7 8.7 100 0.0 NNE 9 17 5 9 1008.6 1008.6 3.2
02/08:30am 8.6 5.8 8.6 100 0.0 NNE 13 32 7 17 1008.8 1008.8 2.6
02/08:00am 8.9 6.6 8.9 100 0.0 NNE 11 17 6 9 1009.1 1009.1 0.6
02/07:30am 9.6 6.1 8.7 94 0.4 N 17 26 9 14 1008.8 1008.8 0.0
02/07:00am 10.5 6.5 5.1 69 2.5 N 15 24 8 13 1008.7 1008.7 0.0
02/06:30am 11.1 7.6 3.4 59 3.4 NNE 11 20 6 11 1008.4 1008.4 0.0
02/06:00am 11.4 7.0 2.9 56 3.7 NE 15 22 8 12 1008.0 1008.0 0.0
02/05:30am 11.5 6.4 2.8 55 3.8 NE 19 26 10 14 1007.9 1007.9 0.0
02/05:00am 11.6 7.5 2.4 53 4.0 NE 13 20 7 11 1008.4 1008.4 0.0
02/04:30am 11.4 6.9 2.4 54 3.9 NE 15 20 8 11 1008.4 1008.4 0.0
02/04:00am 11.5 7.4 2.3 53 4.0 NE 13 20 7 11 1008.7 1008.7 0.0
02/03:30am 12.0 8.1 1.3 48 4.6 NNE 11 15 6 8 1009.2 1009.2 0.0
02/03:00am 12.1 8.2 1.1 47 4.7 NNE 11 17 6 9 1009.2 1009.2 0.0
02/02:30am 12.0 8.1 1.3 48 4.6 NE 11 19 6 10 1009.6 1009.6 0.0
02/02:00am 12.0 7.7 1.3 48 4.6 NE 13 20 7 11 1009.7 1009.7 0.0
02/01:30am 11.9 7.6 1.3 48 4.5 NE 13 19 7 10 1009.9 1009.9 0.0
02/01:00am 11.9 8.0 1.3 48 4.5 NNE 11 17 6 9 1009.9 1009.9 0.0
02/12:30am 11.8 8.3 1.4 49 4.4 NNE 9 19 5 10 1010.2 1010.2 0.0
02/12:00am 11.6 8.1 1.5 50 4.3 NNE 9 15 5 8 1010.4 1010.4 0.0
 
Date/Time
EST
Temp
°C
App
Temp
°C
Dew
Point
Rel
Hum
%
Delta-T
°C
Wind Press
QNH
hPa
Press
MSL
hPa
Rain
since 9 am
mm
Dir
 
Spd
km/h
Gust
km/h
Spd
kts
Gust
kts
01/11:30pm 11.1 7.6 1.4 51 4.1 NE 9 17 5 9 1010.3 1010.3 0.0
01/11:00pm 11.8 8.3 1.4 49 4.4 NE 9 15 5 8 1010.5 1010.5 0.0
01/10:30pm 12.5 9.0 1.5 47 4.7 NE 9 15 5 8 1010.7 1010.7 0.0
01/10:00pm 13.7 9.8 1.4 43 5.3 NNE 11 17 6 9 1010.8 1010.8 0.0
01/09:30pm 14.2 10.0 1.8 43 5.4 NNE 13 20 7 11 1010.8 1010.8 0.0
01/09:00pm 14.3 10.1 1.6 42 5.6 NNE 13 20 7 11 1010.8 1010.8 0.0
01/08:30pm 14.3 10.9 1.6 42 5.6 NNE 9 17 5 9 1010.5 1010.5 0.0
01/08:00pm 15.3 12.2 1.4 39 6.1 NE 7 13 4 7 1010.7 1010.7 0.0
01/07:30pm 16.2 12.4 1.9 38 6.4 NE 11 15 6 8 1010.5 1010.5 0.0
01/07:00pm 17.2 14.3 2.4 37 6.8 NE 7 13 4 7 1010.3 1010.3 0.0
01/06:30pm 17.6 14.0 3.1 38 6.7 NE 11 20 6 11 1010.4 1010.4 0.0
01/06:00pm 18.6 15.7 2.4 34 7.5 NNE 7 13 4 7 1010.3 1010.3 0.0
01/05:30pm 19.3 15.6 2.6 33 7.8 NE 11 20 6 11 1010.1 1010.1 0.0
01/05:00pm 20.3 17.4 2.6 31 8.3 NNE 7 11 4 6 1009.9 1009.9 0.0
01/04:30pm 20.5 16.8 2.3 30 8.5 NNE 11 17 6 9 1010.1 1010.1 0.0
01/04:00pm 20.5 17.2 2.3 30 8.5 N 9 15 5 8 1010.4 1010.4 0.0
01/03:30pm 21.1 17.8 2.4 29 8.8 N 9 17 5 9 1010.7 1010.7 0.0
01/03:00pm 20.6 16.5 2.0 29 8.7 N 13 20 7 11 1011.1 1011.1 0.0
01/02:30pm 20.6 16.8 2.0 29 8.7 N 11 22 6 12 1011.3 1011.3 0.0
01/02:00pm 20.8 17.1 2.1 29 8.7 N 11 20 6 11 1011.8 1011.9 0.0
01/01:30pm 19.5 16.2 2.4 32 7.9 NNE 9 20 5 11 1012.2 1012.3 0.0
01/01:00pm 18.7 15.1 2.9 35 7.4 N 11 19 6 10 1013.2 1013.2 0.0
01/12:30pm 17.7 13.6 2.5 36 7.0 NNE 13 22 7 12 1013.8 1013.8 0.0
01/12:00pm 16.8 13.6 2.8 39 6.4 NNE 9 17 5 9 1014.6 1014.6 0.0
01/11:30am 16.4 12.5 3.5 42 6.0 NNE 13 19 7 10 1015.0 1015.0 0.0
01/11:00am 14.3 10.8 3.7 49 4.8 NNE 11 19 6 10 1015.3 1015.3 0.0
01/10:30am 13.4 9.5 3.5 51 4.5 NE 13 20 7 11 1015.5 1015.5 0.0
01/10:00am 11.6 6.7 3.9 59 3.5 NE 19 26 10 14 1015.5 1015.5 0.0
01/09:30am 9.4 5.6 4.0 69 2.4 NE 13 20 7 11 1016.1 1016.3 0.0
01/09:00am 7.3 2.8 4.3 81 1.3 NE 17 26 9 14 1016.1 1016.3 0.0
01/08:30am 5.4 1.0 4.7 95 0.3 NE 17 22 9 12 1016.3 1016.5 0.0
01/08:00am 4.1 -0.4 4.0 99 0.0 NE 17 20 9 11 1016.3 1016.5 0.0
01/07:30am 3.0 -1.7 2.9 99 0.0 ENE 17 19 9 10 1016.1 1016.3 0.0
01/07:00am 2.5 -1.6 2.4 99 0.0 ENE 13 17 7 9 1016.2 1016.4 0.0
01/06:30am 2.5 -2.3 2.4 99 0.0 ENE 17 20 9 11 1016.0 1016.2 0.0
01/06:00am 2.4 -1.7 2.3 99 0.0 ENE 13 17 7 9 1016.2 1016.4 0.0
01/05:30am 2.6 -1.5 2.5 99 0.0 NE 13 17 7 9 1016.2 1016.4 0.0
01/05:00am 2.2 -2.3 2.1 99 0.0 ENE 15 20 8 11 1015.9 1016.0 0.0
01/04:30am 2.5 -2.0 2.4 99 0.0 ENE 15 20 8 11 1015.9 1016.0 0.0
01/04:00am 3.1 -2.0 3.0 99 0.0 ENE 19 22 10 12 1015.9 1016.0 0.0
01/03:30am 2.6 -2.2 2.5 99 0.0 E 17 20 9 11 1016.3 1016.5 0.0
01/03:00am 2.8 -2.0 2.7 99 0.0 ENE 17 19 9 10 1016.6 1016.8 0.0
01/02:30am 3.0 -1.7 2.9 99 0.0 E 17 19 9 10 1017.0 1017.2 0.0
01/02:00am 3.1 -1.6 3.0 99 0.0 E 17 20 9 11 1017.4 1017.6 0.0
01/01:30am 3.5 -1.2 3.4 99 0.0 ENE 17 20 9 11 1017.6 1017.8 0.0
01/01:00am 4.0 -1.0 3.7 98 0.1 E 19 22 10 12 1017.7 1017.9 0.0
01/12:30am 4.2 -0.4 3.8 97 0.2 E 17 20 9 11 1017.8 1018.0 0.0
01/12:00am 4.4 -0.2 3.8 96 0.3 E 17 20 9 11 1018.0 1018.2 0.0
 
Date/Time
EST
Temp
°C
App
Temp
°C
Dew
Point
Rel
Hum
%
Delta-T
°C
Wind Press
QNH
hPa
Press
MSL
hPa
Rain
since 9 am
mm
Dir
 
Spd
km/h
Gust
km/h
Spd
kts
Gust
kts
31/11:30pm 4.9 0.4 4.2 95 0.3 E 17 22 9 12 1018.3 1018.5 0.0
31/11:00pm 3.4 0.2 3.1 98 0.1 E 9 11 5 6 1018.6 1018.8 0.0
31/10:30pm 4.5 1.1 3.8 95 0.3 ESE 11 13 6 7 1018.7 1018.9 0.0
31/10:00pm 5.5 1.7 3.7 88 0.8 E 13 13 7 7 1018.7 1018.9 0.0
31/09:30pm 5.9 2.0 3.4 84 1.1 ESE 13 15 7 8 1018.6 1018.8 0.0
31/09:00pm 6.0 2.8 3.0 81 1.3 ESE 9 13 5 7 1018.8 1019.0 0.0
31/08:30pm 6.8 2.5 3.4 79 1.4 SE 15 17 8 9 1018.6 1018.8 0.0
31/08:00pm 6.4 1.9 2.3 75 1.7 SE 15 17 8 9 1018.5 1018.7 0.0
31/07:30pm 8.6 4.9 2.4 65 2.6 SE 11 13 6 7 1018.5 1018.7 0.0
31/07:00pm 10.7 8.6 1.5 53 3.9 W 2 7 1 4 1018.3 1018.5 0.0
31/06:30pm 10.9 8.0 1.4 52 4.0 SSW 6 7 3 4 1018.1 1018.3 0.0
31/06:00pm 12.9 11.2 1.9 47 4.8 CALM 0 6 0 3 1017.9 1018.1 0.0
31/05:30pm 14.3 12.3 2.5 45 5.3 S 2 6 1 3 1017.8 1018.0 0.0
31/05:00pm 14.6 11.7 2.5 44 5.4 N 7 11 4 6 1017.8 1018.0 0.0
31/04:30pm 14.6 11.3 2.2 43 5.5 SSW 9 15 5 8 1017.9 1018.1 0.0
31/04:00pm 14.6 11.8 2.2 43 5.5 WSW 6 15 3 8 1018.0 1018.2 0.0
31/03:30pm 14.1 10.8 2.4 45 5.2 WSW 9 17 5 9 1018.2 1018.4 0.0
31/03:00pm 14.5 11.1 2.1 43 5.5 W 9 17 5 9 1018.6 1018.8 0.0
31/02:30pm 13.9 9.8 2.2 45 5.2 W 13 20 7 11 1019.0 1019.2 0.0
31/02:00pm 13.7 9.6 2.3 46 5.0 WSW 13 24 7 13 1019.3 1019.5 0.0
31/01:30pm 13.3 8.6 3.1 50 4.6 S 17 24 9 13 1019.7 1019.9 0.0
31/01:00pm 13.1 10.0 3.5 52 4.3 WSW 9 17 5 9 1020.3 1020.5 0.0
31/12:30pm 12.5 8.7 3.7 55 4.0 SW 13 22 7 12 1020.7 1020.8 0.0

Other Formats:

Comma delimited format used in spreadsheet applications
http://www.bom.gov.au/fwo/IDV60801/IDV60801.94827.axf

JavaScript Object Notation format (JSON) in row-major order
http://www.bom.gov.au/fwo/IDV60801/IDV60801.94827.json